sensor_id;sensor_type;location;lat;lon;timestamp;temperature;humidity
20528;DHT22;23612;50.894;10.700;2024-02-14T00:01:05;5.60;99.90
20528;DHT22;23612;50.894;10.700;2024-02-14T00:03:34;5.70;99.90
20528;DHT22;23612;50.894;10.700;2024-02-14T00:05:59;5.70;99.90
20528;DHT22;23612;50.894;10.700;2024-02-14T00:08:25;5.70;99.90
20528;DHT22;23612;50.894;10.700;2024-02-14T00:10:50;5.70;99.90
20528;DHT22;23612;50.894;10.700;2024-02-14T00:13:16;5.60;99.90
20528;DHT22;23612;50.894;10.700;2024-02-14T00:15:43;5.60;99.90
20528;DHT22;23612;50.894;10.700;2024-02-14T00:18:09;5.60;99.90
20528;DHT22;23612;50.894;10.700;2024-02-14T00:20:35;5.60;99.90
20528;DHT22;23612;50.894;10.700;2024-02-14T00:23:01;5.60;99.90
20528;DHT22;23612;50.894;10.700;2024-02-14T00:25:27;5.60;99.90
20528;DHT22;23612;50.894;10.700;2024-02-14T00:27:52;5.60;99.90
20528;DHT22;23612;50.894;10.700;2024-02-14T00:30:19;5.60;99.90
20528;DHT22;23612;50.894;10.700;2024-02-14T00:32:46;5.50;99.90
20528;DHT22;23612;50.894;10.700;2024-02-14T00:35:11;5.60;99.90
20528;DHT22;23612;50.894;10.700;2024-02-14T00:37:37;5.60;99.90
20528;DHT22;23612;50.894;10.700;2024-02-14T00:40:03;5.60;99.90
20528;DHT22;23612;50.894;10.700;2024-02-14T00:42:28;5.60;99.90
20528;DHT22;23612;50.894;10.700;2024-02-14T00:44:54;5.60;99.90
20528;DHT22;23612;50.894;10.700;2024-02-14T00:47:19;5.60;99.90
20528;DHT22;23612;50.894;10.700;2024-02-14T00:49:45;5.50;99.90
20528;DHT22;23612;50.894;10.700;2024-02-14T00:52:10;5.50;99.90
20528;DHT22;23612;50.894;10.700;2024-02-14T00:54:36;5.50;99.90
20528;DHT22;23612;50.894;10.700;2024-02-14T00:57:01;5.50;99.90
20528;DHT22;23612;50.894;10.700;2024-02-14T00:59:27;5.40;99.90
20528;DHT22;23612;50.894;10.700;2024-02-14T01:01:52;5.40;99.90
20528;DHT22;23612;50.894;10.700;2024-02-14T01:04:18;5.50;99.90
20528;DHT22;23612;50.894;10.700;2024-02-14T01:06:44;5.40;99.90
20528;DHT22;23612;50.894;10.700;2024-02-14T01:09:09;5.40;99.90
20528;DHT22;23612;50.894;10.700;2024-02-14T01:11:35;5.40;99.90
20528;DHT22;23612;50.894;10.700;2024-02-14T01:14:01;5.50;99.90
20528;DHT22;23612;50.894;10.700;2024-02-14T01:16:27;5.50;99.90
20528;DHT22;23612;50.894;10.700;2024-02-14T01:18:52;5.50;99.90
20528;DHT22;23612;50.894;10.700;2024-02-14T01:21:18;5.50;99.90
20528;DHT22;23612;50.894;10.700;2024-02-14T01:23:43;5.50;99.90
20528;DHT22;23612;50.894;10.700;2024-02-14T01:26:09;5.50;99.90
20528;DHT22;23612;50.894;10.700;2024-02-14T01:28:34;5.50;99.90
20528;DHT22;23612;50.894;10.700;2024-02-14T01:31:00;5.60;99.90
20528;DHT22;23612;50.894;10.700;2024-02-14T01:33:26;5.60;99.90
20528;DHT22;23612;50.894;10.700;2024-02-14T01:35:51;5.60;99.90
20528;DHT22;23612;50.894;10.700;2024-02-14T01:38:17;5.60;99.90
20528;DHT22;23612;50.894;10.700;2024-02-14T01:40:43;5.70;99.90
20528;DHT22;23612;50.894;10.700;2024-02-14T01:43:10;5.70;99.90
20528;DHT22;23612;50.894;10.700;2024-02-14T01:45:36;5.80;99.90
20528;DHT22;23612;50.894;10.700;2024-02-14T01:48:02;5.90;99.90
20528;DHT22;23612;50.894;10.700;2024-02-14T01:50:28;5.90;99.90
20528;DHT22;23612;50.894;10.700;2024-02-14T01:52:56;5.90;99.90
20528;DHT22;23612;50.894;10.700;2024-02-14T01:55:23;5.90;99.90
20528;DHT22;23612;50.894;10.700;2024-02-14T01:57:48;5.90;99.90
20528;DHT22;23612;50.894;10.700;2024-02-14T02:00:14;6.00;99.90
20528;DHT22;23612;50.894;10.700;2024-02-14T02:02:43;6.00;99.90
20528;DHT22;23612;50.894;10.700;2024-02-14T02:05:09;6.00;99.90
20528;DHT22;23612;50.894;10.700;2024-02-14T02:07:35;6.10;99.90
20528;DHT22;23612;50.894;10.700;2024-02-14T02:10:01;6.10;99.90
20528;DHT22;23612;50.894;10.700;2024-02-14T02:12:29;6.10;99.90
20528;DHT22;23612;50.894;10.700;2024-02-14T02:14:54;6.20;99.90
20528;DHT22;23612;50.894;10.700;2024-02-14T02:17:20;6.20;99.90
20528;DHT22;23612;50.894;10.700;2024-02-14T02:19:46;6.20;99.90
20528;DHT22;23612;50.894;10.700;2024-02-14T02:22:12;6.20;99.90
20528;DHT22;23612;50.894;10.700;2024-02-14T02:24:37;6.20;99.90
20528;DHT22;23612;50.894;10.700;2024-02-14T02:27:03;6.20;99.90
20528;DHT22;23612;50.894;10.700;2024-02-14T02:29:29;6.20;99.90
20528;DHT22;23612;50.894;10.700;2024-02-14T02:31:54;6.30;99.90
20528;DHT22;23612;50.894;10.700;2024-02-14T02:34:20;6.30;99.90
20528;DHT22;23612;50.894;10.700;2024-02-14T02:36:45;6.30;99.90
20528;DHT22;23612;50.894;10.700;2024-02-14T02:39:12;6.30;99.90
20528;DHT22;23612;50.894;10.700;2024-02-14T02:41:38;6.20;99.90
20528;DHT22;23612;50.894;10.700;2024-02-14T02:44:03;6.20;99.90
20528;DHT22;23612;50.894;10.700;2024-02-14T02:46:32;6.10;99.90
20528;DHT22;23612;50.894;10.700;2024-02-14T02:48:57;6.10;99.90
20528;DHT22;23612;50.894;10.700;2024-02-14T02:51:24;6.20;99.90
20528;DHT22;23612;50.894;10.700;2024-02-14T02:53:49;6.20;99.90
20528;DHT22;23612;50.894;10.700;2024-02-14T02:56:15;6.30;99.90
20528;DHT22;23612;50.894;10.700;2024-02-14T02:58:40;6.30;99.90
20528;DHT22;23612;50.894;10.700;2024-02-14T03:01:09;6.30;99.90
20528;DHT22;23612;50.894;10.700;2024-02-14T03:03:35;6.30;99.90
20528;DHT22;23612;50.894;10.700;2024-02-14T03:06:03;6.20;99.90
20528;DHT22;23612;50.894;10.700;2024-02-14T03:08:29;6.20;99.90
20528;DHT22;23612;50.894;10.700;2024-02-14T03:10:56;6.20;99.90
20528;DHT22;23612;50.894;10.700;2024-02-14T03:13:24;6.10;99.90
20528;DHT22;23612;50.894;10.700;2024-02-14T03:15:52;6.10;99.90
20528;DHT22;23612;50.894;10.700;2024-02-14T03:18:17;6.10;99.90
20528;DHT22;23612;50.894;10.700;2024-02-14T03:20:43;6.00;99.90
20528;DHT22;23612;50.894;10.700;2024-02-14T03:23:08;6.00;99.90
20528;DHT22;23612;50.894;10.700;2024-02-14T03:25:33;5.90;99.90
20528;DHT22;23612;50.894;10.700;2024-02-14T03:28:02;5.90;99.90
20528;DHT22;23612;50.894;10.700;2024-02-14T03:30:36;5.90;99.90
20528;DHT22;23612;50.894;10.700;2024-02-14T03:33:03;5.90;99.90
20528;DHT22;23612;50.894;10.700;2024-02-14T03:35:28;6.00;99.90
20528;DHT22;23612;50.894;10.700;2024-02-14T03:37:54;6.00;99.90
20528;DHT22;23612;50.894;10.700;2024-02-14T03:40:19;6.00;99.90
20528;DHT22;23612;50.894;10.700;2024-02-14T03:42:46;6.00;99.90
20528;DHT22;23612;50.894;10.700;2024-02-14T03:45:11;6.10;99.90
20528;DHT22;23612;50.894;10.700;2024-02-14T03:47:37;6.10;99.90
20528;DHT22;23612;50.894;10.700;2024-02-14T03:50:05;6.00;99.90
20528;DHT22;23612;50.894;10.700;2024-02-14T03:52:31;5.90;99.90
20528;DHT22;23612;50.894;10.700;2024-02-14T03:55:00;5.90;99.90
20528;DHT22;23612;50.894;10.700;2024-02-14T03:57:26;6.00;99.90
20528;DHT22;23612;50.894;10.700;2024-02-14T03:59:54;5.90;99.90
20528;DHT22;23612;50.894;10.700;2024-02-14T04:02:21;5.90;99.90
20528;DHT22;23612;50.894;10.700;2024-02-14T04:04:47;5.90;99.90
20528;DHT22;23612;50.894;10.700;2024-02-14T04:07:12;5.90;99.90
20528;DHT22;23612;50.894;10.700;2024-02-14T04:09:38;5.90;99.90
20528;DHT22;23612;50.894;10.700;2024-02-14T04:12:04;6.00;99.90
20528;DHT22;23612;50.894;10.700;2024-02-14T04:14:29;5.90;99.90
20528;DHT22;23612;50.894;10.700;2024-02-14T04:16:55;6.10;99.90
20528;DHT22;23612;50.894;10.700;2024-02-14T04:19:20;6.10;99.90
20528;DHT22;23612;50.894;10.700;2024-02-14T04:21:46;6.00;99.90
20528;DHT22;23612;50.894;10.700;2024-02-14T04:24:12;6.10;99.90
20528;DHT22;23612;50.894;10.700;2024-02-14T04:26:37;6.10;99.90
20528;DHT22;23612;50.894;10.700;2024-02-14T04:29:03;6.10;99.90
20528;DHT22;23612;50.894;10.700;2024-02-14T04:31:28;6.00;99.90
20528;DHT22;23612;50.894;10.700;2024-02-14T04:33:57;5.90;99.90
20528;DHT22;23612;50.894;10.700;2024-02-14T04:36:23;5.90;99.90
20528;DHT22;23612;50.894;10.700;2024-02-14T04:38:49;6.00;99.90
20528;DHT22;23612;50.894;10.700;2024-02-14T04:41:15;6.00;99.90
20528;DHT22;23612;50.894;10.700;2024-02-14T04:43:40;5.90;99.90
20528;DHT22;23612;50.894;10.700;2024-02-14T04:46:06;6.00;99.90
20528;DHT22;23612;50.894;10.700;2024-02-14T04:48:33;6.00;99.90
20528;DHT22;23612;50.894;10.700;2024-02-14T04:50:58;6.00;99.90
20528;DHT22;23612;50.894;10.700;2024-02-14T04:53:24;6.00;99.90
20528;DHT22;23612;50.894;10.700;2024-02-14T04:55:50;6.10;99.90
20528;DHT22;23612;50.894;10.700;2024-02-14T04:58:15;6.10;99.90
20528;DHT22;23612;50.894;10.700;2024-02-14T05:00:41;6.10;99.90
20528;DHT22;23612;50.894;10.700;2024-02-14T05:03:07;6.00;99.90
20528;DHT22;23612;50.894;10.700;2024-02-14T05:05:32;6.00;99.90
20528;DHT22;23612;50.894;10.700;2024-02-14T05:07:59;5.90;99.90
20528;DHT22;23612;50.894;10.700;2024-02-14T05:10:24;6.00;99.90
20528;DHT22;23612;50.894;10.700;2024-02-14T05:12:50;5.90;99.90
20528;DHT22;23612;50.894;10.700;2024-02-14T05:15:15;5.90;99.90
20528;DHT22;23612;50.894;10.700;2024-02-14T05:17:44;5.90;99.90
20528;DHT22;23612;50.894;10.700;2024-02-14T05:20:11;5.90;99.90
20528;DHT22;23612;50.894;10.700;2024-02-14T05:22:37;5.90;99.90
20528;DHT22;23612;50.894;10.700;2024-02-14T05:25:05;5.80;99.90
20528;DHT22;23612;50.894;10.700;2024-02-14T05:27:33;5.80;99.90
20528;DHT22;23612;50.894;10.700;2024-02-14T05:29:59;5.80;99.90
20528;DHT22;23612;50.894;10.700;2024-02-14T05:32:24;5.80;99.90
20528;DHT22;23612;50.894;10.700;2024-02-14T05:34:51;5.80;99.90
20528;DHT22;23612;50.894;10.700;2024-02-14T05:37:16;5.80;99.90
20528;DHT22;23612;50.894;10.700;2024-02-14T05:39:42;5.90;99.90
20528;DHT22;23612;50.894;10.700;2024-02-14T05:42:08;5.90;99.90
20528;DHT22;23612;50.894;10.700;2024-02-14T05:44:33;5.80;99.90
20528;DHT22;23612;50.894;10.700;2024-02-14T05:46:59;5.80;99.90
20528;DHT22;23612;50.894;10.700;2024-02-14T05:49:25;5.80;99.90
20528;DHT22;23612;50.894;10.700;2024-02-14T05:51:51;5.90;99.90
20528;DHT22;23612;50.894;10.700;2024-02-14T05:54:18;5.80;99.90
20528;DHT22;23612;50.894;10.700;2024-02-14T05:56:44;5.90;99.90
20528;DHT22;23612;50.894;10.700;2024-02-14T05:59:10;5.90;99.90
20528;DHT22;23612;50.894;10.700;2024-02-14T06:01:35;5.90;99.90
20528;DHT22;23612;50.894;10.700;2024-02-14T06:04:01;5.90;99.90
20528;DHT22;23612;50.894;10.700;2024-02-14T06:06:27;5.90;99.90
20528;DHT22;23612;50.894;10.700;2024-02-14T06:08:52;5.90;99.90
20528;DHT22;23612;50.894;10.700;2024-02-14T06:11:18;5.80;99.90
20528;DHT22;23612;50.894;10.700;2024-02-14T06:13:47;5.80;99.90
20528;DHT22;23612;50.894;10.700;2024-02-14T06:16:12;5.90;99.90
20528;DHT22;23612;50.894;10.700;2024-02-14T06:18:38;5.80;99.90
20528;DHT22;23612;50.894;10.700;2024-02-14T06:21:05;5.80;99.90
20528;DHT22;23612;50.894;10.700;2024-02-14T06:23:30;5.80;99.90
20528;DHT22;23612;50.894;10.700;2024-02-14T06:25:56;5.70;99.90
20528;DHT22;23612;50.894;10.700;2024-02-14T06:28:22;5.70;99.90
20528;DHT22;23612;50.894;10.700;2024-02-14T06:30:48;5.80;99.90
20528;DHT22;23612;50.894;10.700;2024-02-14T06:33:13;5.70;99.90
20528;DHT22;23612;50.894;10.700;2024-02-14T06:35:39;5.70;99.90
20528;DHT22;23612;50.894;10.700;2024-02-14T06:38:04;5.70;99.90
20528;DHT22;23612;50.894;10.700;2024-02-14T06:40:31;5.70;99.90
20528;DHT22;23612;50.894;10.700;2024-02-14T06:42:56;5.80;99.90
20528;DHT22;23612;50.894;10.700;2024-02-14T06:45:23;5.80;99.90
20528;DHT22;23612;50.894;10.700;2024-02-14T06:47:48;5.90;99.90
20528;DHT22;23612;50.894;10.700;2024-02-14T06:50:14;5.90;99.90
20528;DHT22;23612;50.894;10.700;2024-02-14T06:52:39;5.90;99.90
20528;DHT22;23612;50.894;10.700;2024-02-14T06:55:05;6.00;99.90
20528;DHT22;23612;50.894;10.700;2024-02-14T06:57:31;6.00;99.90
20528;DHT22;23612;50.894;10.700;2024-02-14T06:59:56;6.10;99.90
20528;DHT22;23612;50.894;10.700;2024-02-14T07:02:21;6.10;99.90
20528;DHT22;23612;50.894;10.700;2024-02-14T07:04:47;6.10;99.90
20528;DHT22;23612;50.894;10.700;2024-02-14T07:07:13;6.10;99.90
20528;DHT22;23612;50.894;10.700;2024-02-14T07:09:39;6.10;99.90
20528;DHT22;23612;50.894;10.700;2024-02-14T07:12:05;6.10;99.90
20528;DHT22;23612;50.894;10.700;2024-02-14T07:14:30;6.20;99.90
20528;DHT22;23612;50.894;10.700;2024-02-14T07:16:56;6.30;99.90
20528;DHT22;23612;50.894;10.700;2024-02-14T07:19:21;6.30;99.90
20528;DHT22;23612;50.894;10.700;2024-02-14T07:21:47;6.40;99.90
20528;DHT22;23612;50.894;10.700;2024-02-14T07:24:12;6.40;99.90
20528;DHT22;23612;50.894;10.700;2024-02-14T07:26:38;6.40;99.90
20528;DHT22;23612;50.894;10.700;2024-02-14T07:29:05;6.40;99.90
20528;DHT22;23612;50.894;10.700;2024-02-14T07:31:31;6.40;99.90
20528;DHT22;23612;50.894;10.700;2024-02-14T07:33:59;6.40;99.90
20528;DHT22;23612;50.894;10.700;2024-02-14T07:36:24;6.40;99.90
20528;DHT22;23612;50.894;10.700;2024-02-14T07:38:50;6.40;99.90
20528;DHT22;23612;50.894;10.700;2024-02-14T07:41:15;6.40;99.90
20528;DHT22;23612;50.894;10.700;2024-02-14T07:43:41;6.40;99.90
20528;DHT22;23612;50.894;10.700;2024-02-14T07:46:06;6.40;99.90
20528;DHT22;23612;50.894;10.700;2024-02-14T07:48:32;6.40;99.90
20528;DHT22;23612;50.894;10.700;2024-02-14T07:50:58;6.40;99.90
20528;DHT22;23612;50.894;10.700;2024-02-14T07:53:25;6.40;99.90
20528;DHT22;23612;50.894;10.700;2024-02-14T07:55:51;6.40;99.90
20528;DHT22;23612;50.894;10.700;2024-02-14T07:58:16;6.50;99.90
20528;DHT22;23612;50.894;10.700;2024-02-14T08:00:42;6.50;99.90
20528;DHT22;23612;50.894;10.700;2024-02-14T08:03:07;6.50;99.90
20528;DHT22;23612;50.894;10.700;2024-02-14T08:05:33;6.60;99.90
20528;DHT22;23612;50.894;10.700;2024-02-14T08:07:59;6.50;99.90
20528;DHT22;23612;50.894;10.700;2024-02-14T08:10:24;6.60;99.90
20528;DHT22;23612;50.894;10.700;2024-02-14T08:12:50;6.60;99.90
20528;DHT22;23612;50.894;10.700;2024-02-14T08:15:15;6.70;99.90
20528;DHT22;23612;50.894;10.700;2024-02-14T08:17:41;6.70;99.90
20528;DHT22;23612;50.894;10.700;2024-02-14T08:20:07;6.70;99.90
20528;DHT22;23612;50.894;10.700;2024-02-14T08:22:32;6.80;99.90
20528;DHT22;23612;50.894;10.700;2024-02-14T08:24:58;6.80;99.90
20528;DHT22;23612;50.894;10.700;2024-02-14T08:27:24;6.90;99.90
20528;DHT22;23612;50.894;10.700;2024-02-14T08:29:51;6.90;99.90
20528;DHT22;23612;50.894;10.700;2024-02-14T08:32:16;6.90;99.90
20528;DHT22;23612;50.894;10.700;2024-02-14T08:34:42;7.00;99.90
20528;DHT22;23612;50.894;10.700;2024-02-14T08:37:07;7.00;99.90
20528;DHT22;23612;50.894;10.700;2024-02-14T08:39:33;7.00;99.90
20528;DHT22;23612;50.894;10.700;2024-02-14T08:41:59;7.10;99.90
20528;DHT22;23612;50.894;10.700;2024-02-14T08:44:27;7.10;99.90
20528;DHT22;23612;50.894;10.700;2024-02-14T08:46:52;7.10;99.90
20528;DHT22;23612;50.894;10.700;2024-02-14T08:49:18;7.10;99.90
20528;DHT22;23612;50.894;10.700;2024-02-14T08:51:44;7.20;99.90
20528;DHT22;23612;50.894;10.700;2024-02-14T08:54:11;7.20;99.90
20528;DHT22;23612;50.894;10.700;2024-02-14T08:56:37;7.00;99.90
20528;DHT22;23612;50.894;10.700;2024-02-14T08:59:03;7.00;99.90
20528;DHT22;23612;50.894;10.700;2024-02-14T09:01:30;7.10;99.90
20528;DHT22;23612;50.894;10.700;2024-02-14T09:03:56;7.10;99.90
20528;DHT22;23612;50.894;10.700;2024-02-14T09:06:21;7.20;99.90
20528;DHT22;23612;50.894;10.700;2024-02-14T09:08:47;7.20;99.90
20528;DHT22;23612;50.894;10.700;2024-02-14T09:11:13;7.20;99.90
20528;DHT22;23612;50.894;10.700;2024-02-14T09:13:38;7.20;99.90
20528;DHT22;23612;50.894;10.700;2024-02-14T09:16:08;7.20;99.90
20528;DHT22;23612;50.894;10.700;2024-02-14T09:18:34;7.30;99.90
20528;DHT22;23612;50.894;10.700;2024-02-14T09:21:00;7.40;99.90
20528;DHT22;23612;50.894;10.700;2024-02-14T09:23:26;7.40;99.90
20528;DHT22;23612;50.894;10.700;2024-02-14T09:25:52;7.50;99.90
20528;DHT22;23612;50.894;10.700;2024-02-14T09:28:18;7.50;99.90
20528;DHT22;23612;50.894;10.700;2024-02-14T09:30:44;7.60;99.90
20528;DHT22;23612;50.894;10.700;2024-02-14T09:33:10;7.80;99.90
20528;DHT22;23612;50.894;10.700;2024-02-14T09:35:36;7.90;99.90
20528;DHT22;23612;50.894;10.700;2024-02-14T09:38:04;7.90;99.90
20528;DHT22;23612;50.894;10.700;2024-02-14T09:40:29;8.10;99.90
20528;DHT22;23612;50.894;10.700;2024-02-14T09:42:56;8.20;99.90
20528;DHT22;23612;50.894;10.700;2024-02-14T09:45:27;8.40;99.90
20528;DHT22;23612;50.894;10.700;2024-02-14T09:47:56;8.60;99.90
20528;DHT22;23612;50.894;10.700;2024-02-14T09:50:23;8.70;99.90
20528;DHT22;23612;50.894;10.700;2024-02-14T09:52:49;8.80;99.90
20528;DHT22;23612;50.894;10.700;2024-02-14T09:55:16;8.90;99.90
20528;DHT22;23612;50.894;10.700;2024-02-14T09:57:43;9.30;99.90
20528;DHT22;23612;50.894;10.700;2024-02-14T10:00:12;9.40;99.90
20528;DHT22;23612;50.894;10.700;2024-02-14T10:02:40;9.30;99.90
20528;DHT22;23612;50.894;10.700;2024-02-14T10:05:06;9.30;99.90
20528;DHT22;23612;50.894;10.700;2024-02-14T10:07:42;9.10;99.90
20528;DHT22;23612;50.894;10.700;2024-02-14T10:10:09;9.00;99.90
20528;DHT22;23612;50.894;10.700;2024-02-14T10:12:35;8.90;99.90
20528;DHT22;23612;50.894;10.700;2024-02-14T10:15:00;9.00;99.90
20528;DHT22;23612;50.894;10.700;2024-02-14T10:17:29;9.40;99.90
20528;DHT22;23612;50.894;10.700;2024-02-14T10:19:58;9.60;99.90
20528;DHT22;23612;50.894;10.700;2024-02-14T10:22:24;9.50;99.90
20528;DHT22;23612;50.894;10.700;2024-02-14T10:24:51;9.50;99.90
20528;DHT22;23612;50.894;10.700;2024-02-14T10:27:16;9.60;99.90
20528;DHT22;23612;50.894;10.700;2024-02-14T10:29:42;9.90;99.90
20528;DHT22;23612;50.894;10.700;2024-02-14T10:32:09;10.00;99.90
20528;DHT22;23612;50.894;10.700;2024-02-14T10:34:35;9.90;99.90
20528;DHT22;23612;50.894;10.700;2024-02-14T10:37:03;10.00;99.90
20528;DHT22;23612;50.894;10.700;2024-02-14T10:39:32;10.10;99.90
20528;DHT22;23612;50.894;10.700;2024-02-14T10:42:00;10.40;99.90
20528;DHT22;23612;50.894;10.700;2024-02-14T10:44:27;10.70;99.90
20528;DHT22;23612;50.894;10.700;2024-02-14T10:46:53;10.80;99.90
20528;DHT22;23612;50.894;10.700;2024-02-14T10:49:20;11.60;99.90
20528;DHT22;23612;50.894;10.700;2024-02-14T10:51:47;12.60;99.90
20528;DHT22;23612;50.894;10.700;2024-02-14T10:54:14;13.50;99.90
20528;DHT22;23612;50.894;10.700;2024-02-14T10:56:42;14.20;99.90
20528;DHT22;23612;50.894;10.700;2024-02-14T10:59:14;14.30;99.90
20528;DHT22;23612;50.894;10.700;2024-02-14T11:01:41;14.10;99.90
20528;DHT22;23612;50.894;10.700;2024-02-14T11:04:07;14.10;99.90
20528;DHT22;23612;50.894;10.700;2024-02-14T11:06:47;13.90;99.90
20528;DHT22;23612;50.894;10.700;2024-02-14T11:09:13;13.40;99.90
20528;DHT22;23612;50.894;10.700;2024-02-14T11:11:44;12.90;99.90
20528;DHT22;23612;50.894;10.700;2024-02-14T11:14:10;12.50;99.90
20528;DHT22;23612;50.894;10.700;2024-02-14T11:16:38;12.50;99.90
20528;DHT22;23612;50.894;10.700;2024-02-14T11:19:10;12.20;99.90
20528;DHT22;23612;50.894;10.700;2024-02-14T11:21:42;11.90;99.90
20528;DHT22;23612;50.894;10.700;2024-02-14T11:24:10;11.60;99.90
20528;DHT22;23612;50.894;10.700;2024-02-14T11:26:46;11.50;99.90
20528;DHT22;23612;50.894;10.700;2024-02-14T11:29:15;11.40;99.90
20528;DHT22;23612;50.894;10.700;2024-02-14T11:31:41;11.20;99.90
20528;DHT22;23612;50.894;10.700;2024-02-14T11:34:08;11.00;99.90
20528;DHT22;23612;50.894;10.700;2024-02-14T11:36:36;11.00;99.90
20528;DHT22;23612;50.894;10.700;2024-02-14T11:39:05;10.70;99.90
20528;DHT22;23612;50.894;10.700;2024-02-14T11:41:33;10.70;99.90
20528;DHT22;23612;50.894;10.700;2024-02-14T11:44:06;10.60;99.90
20528;DHT22;23612;50.894;10.700;2024-02-14T11:46:36;10.70;99.90
20528;DHT22;23612;50.894;10.700;2024-02-14T11:49:03;10.60;99.90
20528;DHT22;23612;50.894;10.700;2024-02-14T11:51:35;10.50;99.90
20528;DHT22;23612;50.894;10.700;2024-02-14T11:54:01;10.40;99.90
20528;DHT22;23612;50.894;10.700;2024-02-14T11:56:37;10.50;99.90
20528;DHT22;23612;50.894;10.700;2024-02-14T11:59:04;10.60;99.90
20528;DHT22;23612;50.894;10.700;2024-02-14T12:01:37;11.00;99.90
20528;DHT22;23612;50.894;10.700;2024-02-14T12:04:07;11.00;99.90
20528;DHT22;23612;50.894;10.700;2024-02-14T12:06:34;11.10;99.90
20528;DHT22;23612;50.894;10.700;2024-02-14T12:09:04;11.40;99.90
20528;DHT22;23612;50.894;10.700;2024-02-14T12:11:40;11.70;99.90
20528;DHT22;23612;50.894;10.700;2024-02-14T12:14:09;11.70;99.90
20528;DHT22;23612;50.894;10.700;2024-02-14T12:16:38;12.10;99.90
20528;DHT22;23612;50.894;10.700;2024-02-14T12:19:07;13.00;99.90
20528;DHT22;23612;50.894;10.700;2024-02-14T12:21:39;13.90;99.90
20528;DHT22;23612;50.894;10.700;2024-02-14T12:24:08;14.00;99.90
20528;DHT22;23612;50.894;10.700;2024-02-14T12:26:35;13.70;99.90
20528;DHT22;23612;50.894;10.700;2024-02-14T12:29:05;13.10;99.90
20528;DHT22;23612;50.894;10.700;2024-02-14T12:31:32;12.20;99.90
20528;DHT22;23612;50.894;10.700;2024-02-14T12:33:58;11.70;99.90
20528;DHT22;23612;50.894;10.700;2024-02-14T12:36:32;11.50;99.90
20528;DHT22;23612;50.894;10.700;2024-02-14T12:39:01;11.30;99.90
20528;DHT22;23612;50.894;10.700;2024-02-14T12:41:28;11.00;99.90
20528;DHT22;23612;50.894;10.700;2024-02-14T12:43:55;10.80;99.90
20528;DHT22;23612;50.894;10.700;2024-02-14T12:46:20;10.70;99.90
20528;DHT22;23612;50.894;10.700;2024-02-14T12:48:46;10.80;99.90
20528;DHT22;23612;50.894;10.700;2024-02-14T12:51:11;10.90;99.90
20528;DHT22;23612;50.894;10.700;2024-02-14T12:53:39;10.90;99.90
20528;DHT22;23612;50.894;10.700;2024-02-14T12:56:04;10.90;99.90
20528;DHT22;23612;50.894;10.700;2024-02-14T12:58:31;10.90;99.90
20528;DHT22;23612;50.894;10.700;2024-02-14T13:00:57;10.80;99.90
20528;DHT22;23612;50.894;10.700;2024-02-14T13:03:24;10.80;99.90
20528;DHT22;23612;50.894;10.700;2024-02-14T13:05:49;10.70;99.90
20528;DHT22;23612;50.894;10.700;2024-02-14T13:08:15;10.80;99.90
20528;DHT22;23612;50.894;10.700;2024-02-14T13:10:43;10.80;99.90
20528;DHT22;23612;50.894;10.700;2024-02-14T13:13:08;10.90;99.90
20528;DHT22;23612;50.894;10.700;2024-02-14T13:15:34;11.00;99.90
20528;DHT22;23612;50.894;10.700;2024-02-14T13:17:59;11.00;99.90
20528;DHT22;23612;50.894;10.700;2024-02-14T13:20:25;11.00;99.90
20528;DHT22;23612;50.894;10.700;2024-02-14T13:22:51;10.90;99.90
20528;DHT22;23612;50.894;10.700;2024-02-14T13:25:17;10.70;99.90
20528;DHT22;23612;50.894;10.700;2024-02-14T13:27:43;10.60;99.90
20528;DHT22;23612;50.894;10.700;2024-02-14T13:30:09;10.50;99.90
20528;DHT22;23612;50.894;10.700;2024-02-14T13:32:35;10.50;99.90
20528;DHT22;23612;50.894;10.700;2024-02-14T13:35:00;10.40;99.90
20528;DHT22;23612;50.894;10.700;2024-02-14T13:37:26;10.40;99.90
20528;DHT22;23612;50.894;10.700;2024-02-14T13:39:51;10.40;99.90
20528;DHT22;23612;50.894;10.700;2024-02-14T13:42:17;10.40;99.90
20528;DHT22;23612;50.894;10.700;2024-02-14T13:44:42;10.30;99.90
20528;DHT22;23612;50.894;10.700;2024-02-14T13:47:08;10.30;99.90
20528;DHT22;23612;50.894;10.700;2024-02-14T13:49:34;10.30;99.90
20528;DHT22;23612;50.894;10.700;2024-02-14T13:51:59;10.20;99.90
20528;DHT22;23612;50.894;10.700;2024-02-14T13:54:25;10.20;99.90
20528;DHT22;23612;50.894;10.700;2024-02-14T13:56:51;10.20;99.90
20528;DHT22;23612;50.894;10.700;2024-02-14T13:59:17;10.30;99.90
20528;DHT22;23612;50.894;10.700;2024-02-14T14:01:44;10.40;99.90
20528;DHT22;23612;50.894;10.700;2024-02-14T14:04:11;10.50;99.90
20528;DHT22;23612;50.894;10.700;2024-02-14T14:06:38;10.60;99.90
20528;DHT22;23612;50.894;10.700;2024-02-14T14:09:04;10.80;99.90
20528;DHT22;23612;50.894;10.700;2024-02-14T14:11:30;10.90;99.90
20528;DHT22;23612;50.894;10.700;2024-02-14T14:13:56;10.90;99.90
20528;DHT22;23612;50.894;10.700;2024-02-14T14:16:22;10.90;99.90
20528;DHT22;23612;50.894;10.700;2024-02-14T14:18:51;11.20;99.90
20528;DHT22;23612;50.894;10.700;2024-02-14T14:21:17;11.40;99.90
20528;DHT22;23612;50.894;10.700;2024-02-14T14:23:42;11.40;99.90
20528;DHT22;23612;50.894;10.700;2024-02-14T14:26:08;11.40;99.90
20528;DHT22;23612;50.894;10.700;2024-02-14T14:28:34;11.60;99.90
20528;DHT22;23612;50.894;10.700;2024-02-14T14:31:00;11.60;99.90
20528;DHT22;23612;50.894;10.700;2024-02-14T14:33:27;11.50;99.90
20528;DHT22;23612;50.894;10.700;2024-02-14T14:35:52;11.40;99.90
20528;DHT22;23612;50.894;10.700;2024-02-14T14:38:19;11.20;99.90
20528;DHT22;23612;50.894;10.700;2024-02-14T14:40:44;11.10;99.90
20528;DHT22;23612;50.894;10.700;2024-02-14T14:43:13;11.00;99.90
20528;DHT22;23612;50.894;10.700;2024-02-14T14:45:39;11.00;99.90
20528;DHT22;23612;50.894;10.700;2024-02-14T14:48:05;11.00;99.90
20528;DHT22;23612;50.894;10.700;2024-02-14T14:50:35;11.10;99.90
20528;DHT22;23612;50.894;10.700;2024-02-14T14:53:00;11.20;99.90
20528;DHT22;23612;50.894;10.700;2024-02-14T14:55:49;11.20;99.90
20528;DHT22;23612;50.894;10.700;2024-02-14T14:58:14;11.20;99.90
20528;DHT22;23612;50.894;10.700;2024-02-14T15:00:46;11.20;99.90
20528;DHT22;23612;50.894;10.700;2024-02-14T15:03:12;11.00;99.90
20528;DHT22;23612;50.894;10.700;2024-02-14T15:05:38;10.90;99.90
20528;DHT22;23612;50.894;10.700;2024-02-14T15:08:05;10.70;99.90
20528;DHT22;23612;50.894;10.700;2024-02-14T15:10:31;10.60;99.90
20528;DHT22;23612;50.894;10.700;2024-02-14T15:12:57;10.50;99.90
20528;DHT22;23612;50.894;10.700;2024-02-14T15:15:22;10.20;99.90
20528;DHT22;23612;50.894;10.700;2024-02-14T15:17:49;10.10;99.90
20528;DHT22;23612;50.894;10.700;2024-02-14T15:20:14;10.00;99.90